createdAt,value
2018-05-13T00:00:19.957Z,19.66
2018-05-13T00:02:48.676Z,20.09
2018-05-13T00:05:21.226Z,19.71
2018-05-13T00:07:49.750Z,20.14
2018-05-13T00:10:20.684Z,20.14
2018-05-13T00:12:49.062Z,20.13
2018-05-13T00:15:18.170Z,20.15
2018-05-13T00:17:48.066Z,20.14
2018-05-13T00:20:18.480Z,20.13
2018-05-13T00:22:46.921Z,20.07
2018-05-13T00:25:19.262Z,19.87
2018-05-13T00:27:47.643Z,19.68
2018-05-13T00:30:19.336Z,19.61
2018-05-13T00:32:47.729Z,19.54
2018-05-13T00:35:17.420Z,19.48
2018-05-13T00:37:45.911Z,19.45
2018-05-13T00:40:15.501Z,19.40
2018-05-13T00:42:43.890Z,19.29
2018-05-13T00:45:16.595Z,19.25
2018-05-13T00:47:45.122Z,19.22
2018-05-13T00:50:16.029Z,19.23
2018-05-13T00:52:44.450Z,19.22
2018-05-13T00:55:14.218Z,19.28
2018-05-13T00:57:42.626Z,19.30
2018-05-13T01:00:13.905Z,19.30
2018-05-13T01:02:42.340Z,19.24
2018-05-13T01:05:13.033Z,19.29
2018-05-13T01:07:41.186Z,19.26
2018-05-13T01:10:09.567Z,19.10
2018-05-13T01:12:37.957Z,18.89
2018-05-13T01:15:06.365Z,18.33
2018-05-13T01:17:34.762Z,18.79
2018-05-13T01:20:03.172Z,18.79
2018-05-13T01:22:31.564Z,18.83
2018-05-13T01:24:59.946Z,18.55
2018-05-13T01:27:28.353Z,18.41
2018-05-13T01:29:56.790Z,18.13
2018-05-13T01:32:25.181Z,18.25
2018-05-13T01:34:54.058Z,18.22
2018-05-13T01:37:22.452Z,18.22
2018-05-13T01:39:50.863Z,18.26
2018-05-13T01:42:19.245Z,18.31
2018-05-13T01:44:47.642Z,18.40
2018-05-13T01:47:16.037Z,18.36
2018-05-13T01:49:44.419Z,18.35
2018-05-13T01:52:12.881Z,18.33
2018-05-13T01:54:41.272Z,18.33
2018-05-13T01:57:09.823Z,18.35
2018-05-13T01:59:38.201Z,18.38
2018-05-13T02:02:06.582Z,18.34
2018-05-13T02:04:34.983Z,18.39
2018-05-13T02:07:03.379Z,18.39
2018-05-13T02:09:31.818Z,18.42
2018-05-13T02:12:00.208Z,18.46
2018-05-13T02:14:28.605Z,18.43
2018-05-13T02:16:57.014Z,18.41
2018-05-13T02:19:25.406Z,18.41
2018-05-13T02:21:53.797Z,18.41
2018-05-13T02:24:22.197Z,18.47
2018-05-13T02:26:50.582Z,18.50
2018-05-13T02:29:18.977Z,18.46
2018-05-13T02:31:47.358Z,18.44
2018-05-13T02:34:15.750Z,18.47
2018-05-13T02:36:44.334Z,18.48
2018-05-13T02:39:12.719Z,18.45
2018-05-13T02:41:41.101Z,18.48
2018-05-13T02:44:09.491Z,18.53
2018-05-13T02:46:37.875Z,18.56
2018-05-13T02:49:06.258Z,18.55
2018-05-13T02:51:34.685Z,18.51
2018-05-13T02:54:03.084Z,18.52
2018-05-13T02:56:31.484Z,18.41
2018-05-13T02:58:59.889Z,18.50
2018-05-13T03:01:28.368Z,18.49
2018-05-13T03:03:56.753Z,18.43
2018-05-13T03:06:25.169Z,18.51
2018-05-13T03:08:53.614Z,18.45
2018-05-13T03:11:21.997Z,18.40
2018-05-13T03:13:50.380Z,18.27
2018-05-13T03:16:18.762Z,18.04
2018-05-13T03:18:47.174Z,18.16
2018-05-13T03:21:15.339Z,18.00
2018-05-13T03:23:43.732Z,17.86
2018-05-13T03:26:12.122Z,17.95
2018-05-13T03:28:40.521Z,17.96
2018-05-13T03:31:08.944Z,18.00
2018-05-13T03:33:37.346Z,17.96
2018-05-13T03:36:05.742Z,17.96
2018-05-13T03:38:34.126Z,17.64
2018-05-13T03:41:02.509Z,17.46
2018-05-13T03:43:30.927Z,17.38
2018-05-13T03:45:59.309Z,17.23
2018-05-13T03:48:27.726Z,17.32
2018-05-13T03:50:55.797Z,17.37
2018-05-13T03:53:24.173Z,17.26
2018-05-13T03:55:52.575Z,17.23
2018-05-13T03:58:21.009Z,17.23
2018-05-13T04:00:49.386Z,17.29
2018-05-13T04:03:17.771Z,17.37
2018-05-13T04:05:45.921Z,17.36
2018-05-13T04:11:37.893Z,17.43
2018-05-13T04:14:17.282Z,17.47
2018-05-13T04:16:45.702Z,17.54
2018-05-13T04:19:14.099Z,17.62
2018-05-13T04:21:43.215Z,17.72
2018-05-13T04:24:11.838Z,17.78
2018-05-13T04:26:40.241Z,17.86
2018-05-13T04:29:09.314Z,17.95
2018-05-13T04:31:38.675Z,18.05
2018-05-13T04:34:07.076Z,18.15
2018-05-13T04:36:35.500Z,18.12
2018-05-13T04:39:03.426Z,18.18
2018-05-13T04:41:31.822Z,18.28
2018-05-13T04:44:00.283Z,18.41
2018-05-13T04:46:28.668Z,18.46
2018-05-13T04:48:57.068Z,18.44
2018-05-13T04:51:25.463Z,18.44
2018-05-13T04:53:53.905Z,18.46
2018-05-13T04:56:22.303Z,18.44
2018-05-13T04:58:50.685Z,18.44
2018-05-13T05:01:19.053Z,18.49
2018-05-13T05:03:47.437Z,18.48
2018-05-13T05:06:15.853Z,18.49
2018-05-13T05:08:44.262Z,18.51
2018-05-13T05:11:12.666Z,18.48
2018-05-13T05:13:41.195Z,18.57
2018-05-13T05:16:09.577Z,18.43
2018-05-13T05:18:37.992Z,18.43
2018-05-13T05:21:06.386Z,18.45
2018-05-13T05:23:34.769Z,18.46
2018-05-13T05:26:03.178Z,18.44
2018-05-13T05:28:31.569Z,18.50
2018-05-13T05:31:00.066Z,18.40
2018-05-13T05:33:28.464Z,18.47
2018-05-13T05:35:56.840Z,18.51
2018-05-13T05:38:25.220Z,18.52
2018-05-13T05:40:53.611Z,18.55
2018-05-13T05:43:22.006Z,18.54
2018-05-13T05:45:51.353Z,18.57
2018-05-13T05:48:19.845Z,18.62
2018-05-13T05:50:48.424Z,18.63
2018-05-13T05:53:16.805Z,18.72
2018-05-13T05:55:45.193Z,18.77
2018-05-13T05:58:13.570Z,18.81
2018-05-13T06:00:41.937Z,18.80
2018-05-13T06:03:10.994Z,18.84
2018-05-13T06:05:47.510Z,18.21
2018-05-13T06:08:18.030Z,18.91
2018-05-13T06:10:46.418Z,18.77
2018-05-13T06:13:14.804Z,18.96
2018-05-13T06:15:43.182Z,18.91
2018-05-13T06:18:11.561Z,18.82
2018-05-13T06:20:41.170Z,18.87
2018-05-13T06:23:10.018Z,19.00
2018-05-13T06:25:38.421Z,19.10
2018-05-13T06:28:06.834Z,19.14
2018-05-13T06:30:36.690Z,19.24
2018-05-13T06:33:05.095Z,19.31
2018-05-13T06:35:33.477Z,19.41
2018-05-13T06:38:01.862Z,19.54
2018-05-13T06:40:30.577Z,19.59
2018-05-13T06:42:59.077Z,19.67
2018-05-13T06:45:27.608Z,19.71
2018-05-13T06:47:55.989Z,19.74
2018-05-13T06:50:25.714Z,19.84
2018-05-13T06:52:54.142Z,19.87
2018-05-13T06:55:23.788Z,19.83
2018-05-13T06:57:53.187Z,19.93
2018-05-13T07:00:21.588Z,19.96
2018-05-13T07:02:50.107Z,20.03
2018-05-13T07:05:19.641Z,20.06
2018-05-13T07:07:48.018Z,20.19
2018-05-13T07:10:20.520Z,19.59
2018-05-13T07:12:49.992Z,20.30
2018-05-13T07:15:22.376Z,20.40
2018-05-13T07:17:50.788Z,20.46
2018-05-13T07:20:19.174Z,20.50
2018-05-13T07:22:47.611Z,20.54
2018-05-13T07:25:17.686Z,20.49
2018-05-13T07:27:47.103Z,20.54
2018-05-13T07:30:18.290Z,19.98
2018-05-13T07:32:46.808Z,20.64
2018-05-13T07:35:33.432Z,20.73
2018-05-13T07:38:01.822Z,20.86
2018-05-13T07:40:30.220Z,20.96
2018-05-13T07:42:58.613Z,21.00
2018-05-13T07:45:27.025Z,21.04
2018-05-13T07:47:55.406Z,21.17
2018-05-13T07:50:26.946Z,21.16
2018-05-13T07:52:55.363Z,21.31
2018-05-13T07:55:34.796Z,21.38
2018-05-13T07:58:03.219Z,21.60
2018-05-13T08:00:32.132Z,21.29
2018-05-13T08:03:00.588Z,21.77
2018-05-13T08:05:28.977Z,21.88
2018-05-13T08:07:57.352Z,21.96
2018-05-13T08:10:36.373Z,22.08
2018-05-13T08:13:04.754Z,22.10
2018-05-13T08:15:36.889Z,22.19
2018-05-13T08:18:05.001Z,21.97
2018-05-13T08:20:33.412Z,22.40
2018-05-13T08:23:02.015Z,22.40
2018-05-13T08:25:37.082Z,22.37
2018-05-13T08:28:05.141Z,22.36
2018-05-13T08:30:40.015Z,22.45
2018-05-13T08:33:08.396Z,22.51
2018-05-13T08:35:36.772Z,22.70
2018-05-13T08:38:05.191Z,22.80
2018-05-13T08:40:33.568Z,22.97
2018-05-13T08:43:01.929Z,23.07
2018-05-13T08:45:30.730Z,23.12
2018-05-13T08:47:59.101Z,23.24
2018-05-13T08:50:43.780Z,22.86
2018-05-13T08:53:11.937Z,23.54
2018-05-13T08:55:40.321Z,23.72
2018-05-13T08:58:08.690Z,23.61
2018-05-13T09:00:37.409Z,23.69
2018-05-13T09:03:05.818Z,23.78
2018-05-13T09:05:34.213Z,23.70
2018-05-13T09:08:02.610Z,23.73
2018-05-13T09:10:30.997Z,23.70
2018-05-13T09:12:59.487Z,23.52
2018-05-13T09:15:28.209Z,23.12
2018-05-13T09:17:56.602Z,23.86
2018-05-13T09:20:26.110Z,23.95
2018-05-13T09:22:54.473Z,24.07
2018-05-13T09:25:26.837Z,24.31
2018-05-13T09:27:55.211Z,24.52
2018-05-13T09:30:23.581Z,24.65
2018-05-13T09:32:52.014Z,24.72
2018-05-13T09:35:33.676Z,24.67
2018-05-13T09:38:02.047Z,24.75
2018-05-13T09:40:30.594Z,24.82
2018-05-13T09:42:59.063Z,24.98
2018-05-13T09:45:35.705Z,25.13
2018-05-13T09:48:04.076Z,25.25
2018-05-13T09:50:32.444Z,25.42
2018-05-13T09:53:00.832Z,25.43
2018-05-13T09:55:29.206Z,25.53
2018-05-13T09:57:57.588Z,25.47
2018-05-13T10:00:31.462Z,25.44
2018-05-13T10:02:59.853Z,25.42
2018-05-13T10:05:28.333Z,25.42
2018-05-13T10:07:56.469Z,25.48
2018-05-13T10:10:24.849Z,25.60
2018-05-13T10:12:53.225Z,25.57
2018-05-13T10:15:21.593Z,25.70
2018-05-13T10:17:49.969Z,25.89
2018-05-13T10:20:31.816Z,25.94
2018-05-13T10:23:00.207Z,25.90
2018-05-13T10:25:28.573Z,25.65
2018-05-13T10:27:56.965Z,25.93
2018-05-13T10:30:32.336Z,25.56
2018-05-13T10:33:00.729Z,26.10
2018-05-13T10:35:31.304Z,26.32
2018-05-13T10:37:59.976Z,26.39
2018-05-13T10:40:31.058Z,26.24
2018-05-13T10:42:59.423Z,26.39
2018-05-13T10:45:28.466Z,26.44
2018-05-13T10:47:56.833Z,26.66
2018-05-13T10:50:25.202Z,26.79
2018-05-13T10:52:53.575Z,26.83
2018-05-13T10:55:21.968Z,26.66
2018-05-13T10:57:50.429Z,26.68
2018-05-13T11:03:03.301Z,26.51
2018-05-13T11:05:31.687Z,26.64
2018-05-13T11:08:00.115Z,26.69
2018-05-13T11:10:30.328Z,26.73
2018-05-13T11:12:58.731Z,26.75
2018-05-13T11:15:27.130Z,26.94
2018-05-13T11:17:55.565Z,26.99
2018-05-13T11:20:24.561Z,26.71
2018-05-13T11:22:52.942Z,26.97
2018-05-13T11:25:27.281Z,26.37
2018-05-13T11:27:55.701Z,27.21
2018-05-13T11:30:24.113Z,27.32
2018-05-13T11:32:52.498Z,27.26
2018-05-13T11:35:32.042Z,27.25
2018-05-13T11:38:00.429Z,27.26
2018-05-13T11:40:28.803Z,27.11
2018-05-13T11:42:57.180Z,27.19
2018-05-13T11:45:25.564Z,27.27
2018-05-13T11:47:53.934Z,27.38
2018-05-13T11:50:33.347Z,26.61
2018-05-13T11:53:01.739Z,27.16
2018-05-13T11:55:32.193Z,27.20
2018-05-13T11:58:00.567Z,27.07
2018-05-13T12:00:35.520Z,26.99
2018-05-13T12:03:03.910Z,27.06
2018-05-13T12:05:32.277Z,27.26
2018-05-13T12:08:00.855Z,27.45
2018-05-13T12:10:29.368Z,27.66
2018-05-13T12:12:57.740Z,27.69
2018-05-13T12:15:26.954Z,27.72
2018-05-13T12:17:55.482Z,27.80
2018-05-13T12:20:23.903Z,27.75
2018-05-13T12:22:52.297Z,27.66
2018-05-13T12:25:20.668Z,27.51
2018-05-13T12:27:49.040Z,27.32
2018-05-13T12:30:17.453Z,27.31
2018-05-13T12:32:45.830Z,27.29
2018-05-13T12:35:14.212Z,27.06
2018-05-13T12:37:42.599Z,27.06
2018-05-13T12:40:11.069Z,27.04
2018-05-13T12:42:39.490Z,27.16
2018-05-13T12:45:07.867Z,27.17
2018-05-13T12:47:36.243Z,27.13
2018-05-13T12:50:04.137Z,27.07
2018-05-13T12:52:32.605Z,27.03
2018-05-13T12:55:00.978Z,27.06
2018-05-13T12:57:29.375Z,27.18
2018-05-13T12:59:58.369Z,27.29
2018-05-13T13:02:26.739Z,27.28
2018-05-13T13:04:55.821Z,27.42
2018-05-13T13:07:24.194Z,27.08
2018-05-13T13:09:52.569Z,26.87
2018-05-13T13:12:20.951Z,27.00
2018-05-13T13:14:49.321Z,27.10
2018-05-13T13:17:17.701Z,26.90
2018-05-13T13:19:46.072Z,26.95
2018-05-13T13:22:14.860Z,26.82
2018-05-13T13:24:43.369Z,26.78
2018-05-13T13:27:11.742Z,26.93
2018-05-13T13:29:40.852Z,27.04
2018-05-13T13:32:09.230Z,27.21
2018-05-13T13:34:37.606Z,27.07
2018-05-13T13:37:06.497Z,27.31
2018-05-13T13:39:34.882Z,27.49
2018-05-13T13:42:03.282Z,27.28
2018-05-13T13:44:31.668Z,27.24
2018-05-13T13:47:00.042Z,27.36
2018-05-13T13:49:28.425Z,27.31
2018-05-13T13:51:56.793Z,27.26
2018-05-13T13:54:25.179Z,27.22
2018-05-13T13:56:53.560Z,26.93
2018-05-13T13:59:21.941Z,26.89
2018-05-13T14:01:50.557Z,26.79
2018-05-13T14:04:18.970Z,26.79
2018-05-13T14:06:47.336Z,26.79
2018-05-13T14:09:15.726Z,26.63
2018-05-13T14:11:44.101Z,26.80
2018-05-13T14:14:12.493Z,26.76
2018-05-13T14:16:40.871Z,26.76
2018-05-13T14:19:09.707Z,26.75
2018-05-13T14:21:37.848Z,26.86
2018-05-13T14:24:06.880Z,26.67
2018-05-13T14:26:35.243Z,26.51
2018-05-13T14:29:03.699Z,26.61
2018-05-13T14:31:32.189Z,26.60
2018-05-13T14:34:00.606Z,26.68
2018-05-13T14:36:28.983Z,26.67
2018-05-13T14:38:57.641Z,26.62
2018-05-13T14:41:26.021Z,26.55
2018-05-13T14:43:54.201Z,26.53
2018-05-13T14:46:23.094Z,26.45
2018-05-13T14:48:51.511Z,26.50
2018-05-13T14:51:20.264Z,26.51
2018-05-13T14:53:48.637Z,26.55
2018-05-13T14:56:17.576Z,26.53
2018-05-13T14:58:45.988Z,26.53
2018-05-13T15:01:14.360Z,26.54
2018-05-13T15:03:42.724Z,26.60
2018-05-13T15:06:11.102Z,26.51
2018-05-13T15:08:39.470Z,26.43
2018-05-13T15:11:07.866Z,26.36
2018-05-13T15:13:36.241Z,26.33
2018-05-13T15:16:04.616Z,26.36
2018-05-13T15:18:33.859Z,26.32
2018-05-13T15:21:02.244Z,26.23
2018-05-13T15:23:30.644Z,26.16
2018-05-13T15:26:01.461Z,26.09
2018-05-13T15:28:29.826Z,26.13
2018-05-13T15:30:58.202Z,25.89
2018-05-13T15:33:26.654Z,26.02
2018-05-13T15:35:54.792Z,26.01
2018-05-13T15:38:23.170Z,25.97
2018-05-13T15:40:51.534Z,25.91
2018-05-13T15:43:20.919Z,25.92
2018-05-13T15:45:56.353Z,25.94
2018-05-13T15:48:24.731Z,25.81
2018-05-13T15:50:53.108Z,25.71
2018-05-13T15:53:21.486Z,25.65
2018-05-13T15:55:49.865Z,25.70
2018-05-13T15:58:18.250Z,25.65
2018-05-13T16:00:46.655Z,25.69
2018-05-13T16:03:15.065Z,25.64
2018-05-13T16:05:43.468Z,25.60
2018-05-13T16:08:11.857Z,25.52
2018-05-13T16:10:40.763Z,25.47
2018-05-13T16:13:09.130Z,25.44
2018-05-13T16:15:37.563Z,25.47
2018-05-13T16:18:05.627Z,25.42
2018-05-13T16:20:34.002Z,25.38
2018-05-13T16:23:02.408Z,25.33
2018-05-13T16:25:30.776Z,25.27
2018-05-13T16:27:59.221Z,25.24
2018-05-13T16:30:31.617Z,25.20
2018-05-13T16:32:59.993Z,25.05
2018-05-13T16:35:28.374Z,25.17
2018-05-13T16:37:56.766Z,25.13
2018-05-13T16:40:25.135Z,24.70
2018-05-13T16:42:53.502Z,25.13
2018-05-13T16:45:25.271Z,24.72
2018-05-13T16:47:53.652Z,25.09
2018-05-13T16:50:28.386Z,24.96
2018-05-13T16:52:56.778Z,25.08
2018-05-13T16:55:25.133Z,25.07
2018-05-13T16:57:53.505Z,25.04
2018-05-13T17:00:43.807Z,25.00
2018-05-13T17:03:12.169Z,24.98
2018-05-13T17:05:40.569Z,24.92
2018-05-13T17:08:08.955Z,24.90
2018-05-13T17:10:37.337Z,24.76
2018-05-13T17:13:05.697Z,24.80
2018-05-13T17:15:43.241Z,24.17
2018-05-13T17:18:12.249Z,24.78
2018-05-13T17:20:40.629Z,24.77
2018-05-13T17:23:09.031Z,24.74
2018-05-13T17:25:37.394Z,24.41
2018-05-13T17:28:05.805Z,24.53
2018-05-13T17:30:38.188Z,24.01
2018-05-13T17:33:07.770Z,24.60
2018-05-13T17:35:37.078Z,24.55
2018-05-13T17:38:06.386Z,24.52
2018-05-13T17:40:34.772Z,23.94
2018-05-13T17:43:03.177Z,24.43
2018-05-13T17:45:31.674Z,24.38
2018-05-13T17:48:00.050Z,24.31
2018-05-13T17:50:39.814Z,24.29
2018-05-13T17:53:08.200Z,24.22
2018-05-13T17:55:36.629Z,24.18
2018-05-13T17:58:05.009Z,24.12
2018-05-13T18:00:35.900Z,24.08
2018-05-13T18:03:04.386Z,23.88
2018-05-13T18:05:37.636Z,23.82
2018-05-13T18:08:07.335Z,23.95
2018-05-13T18:10:35.718Z,23.76
2018-05-13T18:13:04.330Z,23.83
2018-05-13T18:15:35.357Z,23.17
2018-05-13T18:18:03.731Z,23.75
2018-05-13T18:20:32.465Z,23.68
2018-05-13T18:23:00.843Z,23.59
2018-05-13T18:25:29.444Z,23.57
2018-05-13T18:27:58.209Z,23.52
2018-05-13T18:30:26.573Z,23.43
2018-05-13T18:32:54.977Z,23.22
2018-05-13T18:35:33.035Z,22.92
2018-05-13T18:38:01.546Z,23.25
2018-05-13T18:43:04.757Z,23.05
2018-05-13T18:45:33.166Z,23.00
2018-05-13T18:48:01.539Z,22.94
2018-05-13T18:50:34.041Z,22.91
2018-05-13T18:53:03.237Z,22.83
2018-05-13T18:55:35.615Z,22.54
2018-05-13T18:58:06.462Z,22.64
2018-05-13T19:00:34.831Z,22.40
2018-05-13T19:03:03.215Z,22.63
2018-05-13T19:05:31.597Z,22.54
2018-05-13T19:07:59.973Z,22.53
2018-05-13T19:10:28.347Z,22.49
2018-05-13T19:12:56.734Z,22.38
2018-05-13T19:15:32.718Z,21.94
2018-05-13T19:18:01.099Z,22.27
2018-05-13T19:20:39.715Z,22.17
2018-05-13T19:23:08.095Z,22.11
2018-05-13T19:25:44.991Z,22.08
2018-05-13T19:28:13.386Z,22.05
2018-05-13T19:30:45.907Z,21.85
2018-05-13T19:33:14.477Z,21.98
2018-05-13T19:35:42.870Z,21.87
2018-05-13T19:38:11.242Z,21.96
2018-05-13T19:40:43.052Z,21.93
2018-05-13T19:43:11.423Z,21.94
2018-05-13T19:45:39.861Z,21.91
2018-05-13T19:48:08.229Z,21.92
2018-05-13T19:50:36.603Z,21.86
2018-05-13T19:53:04.991Z,21.81
2018-05-13T19:55:33.361Z,21.77
2018-05-13T19:58:02.389Z,21.68
2018-05-13T20:00:38.076Z,21.66
2018-05-13T20:03:07.921Z,21.64
2018-05-13T20:05:50.491Z,21.56
2018-05-13T20:08:19.958Z,21.46
2018-05-13T20:10:48.339Z,21.42
2018-05-13T20:13:17.551Z,21.41
2018-05-13T20:15:48.583Z,21.39
2018-05-13T20:18:17.239Z,21.36
2018-05-13T20:20:45.608Z,21.29
2018-05-13T20:23:25.364Z,21.20
2018-05-13T20:25:53.828Z,21.12
2018-05-13T20:28:22.202Z,21.04
2018-05-13T20:30:50.572Z,20.98
2018-05-13T20:33:18.948Z,20.90
2018-05-13T20:35:47.329Z,20.87
2018-05-13T20:38:16.272Z,20.82
2018-05-13T20:40:45.813Z,20.77
2018-05-13T20:43:14.182Z,20.72
2018-05-13T20:45:42.578Z,20.67
2018-05-13T20:48:10.950Z,20.62
2018-05-13T20:50:40.623Z,20.59
2018-05-13T20:53:09.003Z,20.52
2018-05-13T20:55:37.543Z,20.34
2018-05-13T20:58:05.939Z,20.40
2018-05-13T21:00:34.220Z,20.31
2018-05-13T21:03:02.610Z,20.30
2018-05-13T21:05:30.766Z,20.24
2018-05-13T21:07:59.146Z,20.19
2018-05-13T21:10:27.515Z,20.15
2018-05-13T21:12:55.890Z,20.15
2018-05-13T21:15:24.434Z,20.12
2018-05-13T21:17:53.077Z,20.09
2018-05-13T21:20:34.656Z,19.93
2018-05-13T21:23:03.047Z,20.03
2018-05-13T21:25:47.760Z,20.03
2018-05-13T21:28:16.191Z,20.00
2018-05-13T21:30:45.041Z,19.99
2018-05-13T21:33:13.425Z,19.97
2018-05-13T21:35:41.802Z,19.91
2018-05-13T21:38:10.179Z,19.85
2018-05-13T21:40:40.094Z,19.87
2018-05-13T21:43:08.470Z,19.85
2018-05-13T21:45:36.851Z,19.86
2018-05-13T21:48:05.242Z,19.82
2018-05-13T21:50:42.204Z,19.88
2018-05-13T21:53:10.927Z,19.80
2018-05-13T21:55:39.300Z,19.81
2018-05-13T21:58:07.437Z,19.76
2018-05-13T22:00:43.330Z,19.52
2018-05-13T22:03:11.698Z,19.82
2018-05-13T22:05:53.907Z,19.77
2018-05-13T22:08:22.472Z,19.81
2018-05-13T22:10:50.856Z,19.73
2018-05-13T22:13:19.244Z,19.79
2018-05-13T22:15:47.638Z,19.52
2018-05-13T22:18:16.029Z,19.87
2018-05-13T22:20:54.712Z,19.91
2018-05-13T22:23:23.089Z,19.92
2018-05-13T22:25:51.478Z,19.96
2018-05-13T22:28:19.850Z,20.04
2018-05-13T22:30:48.918Z,19.99
2018-05-13T22:33:17.308Z,19.91
2018-05-13T22:35:45.708Z,19.86
2018-05-13T22:38:14.076Z,19.76
2018-05-13T22:40:42.450Z,19.86
2018-05-13T22:43:10.881Z,19.91
2018-05-13T22:45:42.217Z,19.86
2018-05-13T22:48:10.580Z,19.76
2018-05-13T22:50:38.961Z,19.71
2018-05-13T22:53:07.336Z,19.62
2018-05-13T22:55:35.729Z,19.59
2018-05-13T22:58:04.100Z,19.61
2018-05-13T23:00:44.069Z,19.56
2018-05-13T23:03:12.739Z,19.51
2018-05-13T23:05:41.333Z,19.38
2018-05-13T23:08:09.914Z,19.25
2018-05-13T23:10:40.684Z,19.20
2018-05-13T23:13:09.049Z,19.17
2018-05-13T23:15:37.118Z,19.17
2018-05-13T23:18:05.485Z,19.15
2018-05-13T23:20:45.608Z,19.08
2018-05-13T23:23:13.978Z,19.00
2018-05-13T23:25:53.226Z,18.95
2018-05-13T23:28:21.601Z,18.96
2018-05-13T23:31:04.682Z,18.81
2018-05-13T23:33:33.084Z,18.95
2018-05-13T23:36:01.694Z,18.96
2018-05-13T23:38:29.761Z,18.88
2018-05-13T23:40:58.146Z,18.92
2018-05-13T23:43:26.546Z,18.99
2018-05-13T23:45:55.095Z,18.87
2018-05-13T23:48:23.489Z,18.92
2018-05-13T23:50:51.860Z,18.97
2018-05-13T23:53:20.545Z,19.02
2018-05-13T23:55:49.590Z,19.04
2018-05-13T23:58:17.961Z,19.01
